sensor_id;sensor_type;location;lat;lon;timestamp;P1;durP1;ratioP1;P2;durP2;ratioP2
70138;SDS011;57507;43.056;0.150;2022-07-10T00:00:11;1.50;;;0.70;;
70138;SDS011;57507;43.056;0.150;2022-07-10T00:02:38;2.10;;;1.10;;
70138;SDS011;57507;43.056;0.150;2022-07-10T00:05:06;0.90;;;0.90;;
70138;SDS011;57507;43.056;0.150;2022-07-10T00:07:32;2.13;;;1.00;;
70138;SDS011;57507;43.056;0.150;2022-07-10T00:09:59;1.50;;;0.93;;
70138;SDS011;57507;43.056;0.150;2022-07-10T00:12:25;2.08;;;1.20;;
70138;SDS011;57507;43.056;0.150;2022-07-10T00:14:52;1.77;;;1.00;;
70138;SDS011;57507;43.056;0.150;2022-07-10T00:17:19;1.42;;;1.10;;
70138;SDS011;57507;43.056;0.150;2022-07-10T00:19:46;1.10;;;0.98;;
70138;SDS011;57507;43.056;0.150;2022-07-10T00:22:12;2.70;;;1.80;;
70138;SDS011;57507;43.056;0.150;2022-07-10T00:24:39;1.42;;;1.08;;
70138;SDS011;57507;43.056;0.150;2022-07-10T00:27:06;2.85;;;1.00;;
70138;SDS011;57507;43.056;0.150;2022-07-10T00:29:32;1.25;;;0.98;;
70138;SDS011;57507;43.056;0.150;2022-07-10T00:31:59;1.17;;;1.00;;
70138;SDS011;57507;43.056;0.150;2022-07-10T00:34:25;2.35;;;1.30;;
70138;SDS011;57507;43.056;0.150;2022-07-10T00:36:52;2.33;;;1.10;;
70138;SDS011;57507;43.056;0.150;2022-07-10T00:39:18;1.40;;;1.00;;
70138;SDS011;57507;43.056;0.150;2022-07-10T00:41:45;1.75;;;0.90;;
70138;SDS011;57507;43.056;0.150;2022-07-10T00:44:11;2.55;;;1.20;;
70138;SDS011;57507;43.056;0.150;2022-07-10T00:46:38;1.45;;;0.93;;
70138;SDS011;57507;43.056;0.150;2022-07-10T00:49:06;1.88;;;1.00;;
70138;SDS011;57507;43.056;0.150;2022-07-10T00:51:32;1.50;;;1.20;;
70138;SDS011;57507;43.056;0.150;2022-07-10T00:53:59;1.20;;;1.10;;
70138;SDS011;57507;43.056;0.150;2022-07-10T00:56:26;1.90;;;1.17;;
70138;SDS011;57507;43.056;0.150;2022-07-10T00:58:54;1.40;;;1.23;;
70138;SDS011;57507;43.056;0.150;2022-07-10T01:01:21;1.50;;;1.10;;
70138;SDS011;57507;43.056;0.150;2022-07-10T01:03:48;1.75;;;1.20;;
70138;SDS011;57507;43.056;0.150;2022-07-10T01:06:15;5.03;;;1.08;;
70138;SDS011;57507;43.056;0.150;2022-07-10T01:08:42;1.90;;;1.40;;
70138;SDS011;57507;43.056;0.150;2022-07-10T01:11:09;1.42;;;1.00;;
70138;SDS011;57507;43.056;0.150;2022-07-10T01:13:36;2.95;;;1.20;;
70138;SDS011;57507;43.056;0.150;2022-07-10T01:16:03;2.53;;;1.17;;
70138;SDS011;57507;43.056;0.150;2022-07-10T01:18:30;1.65;;;1.10;;
70138;SDS011;57507;43.056;0.150;2022-07-10T01:20:57;4.05;;;0.98;;
70138;SDS011;57507;43.056;0.150;2022-07-10T01:23:23;2.63;;;1.00;;
70138;SDS011;57507;43.056;0.150;2022-07-10T01:25:50;1.35;;;1.10;;
70138;SDS011;57507;43.056;0.150;2022-07-10T01:28:16;1.88;;;1.00;;
70138;SDS011;57507;43.056;0.150;2022-07-10T01:30:43;4.13;;;1.23;;
70138;SDS011;57507;43.056;0.150;2022-07-10T01:33:10;1.40;;;1.20;;
70138;SDS011;57507;43.056;0.150;2022-07-10T01:35:37;1.92;;;1.20;;
70138;SDS011;57507;43.056;0.150;2022-07-10T01:38:03;1.23;;;0.98;;
70138;SDS011;57507;43.056;0.150;2022-07-10T01:40:30;1.17;;;0.93;;
70138;SDS011;57507;43.056;0.150;2022-07-10T01:42:57;5.03;;;1.35;;
70138;SDS011;57507;43.056;0.150;2022-07-10T01:45:23;1.50;;;1.15;;
70138;SDS011;57507;43.056;0.150;2022-07-10T01:47:50;5.75;;;1.10;;
70138;SDS011;57507;43.056;0.150;2022-07-10T01:50:17;1.55;;;1.00;;
70138;SDS011;57507;43.056;0.150;2022-07-10T01:52:44;1.42;;;0.93;;
70138;SDS011;57507;43.056;0.150;2022-07-10T01:55:11;1.45;;;1.10;;
70138;SDS011;57507;43.056;0.150;2022-07-10T01:57:38;1.52;;;0.90;;
70138;SDS011;57507;43.056;0.150;2022-07-10T02:00:04;2.17;;;1.10;;
70138;SDS011;57507;43.056;0.150;2022-07-10T02:02:31;1.42;;;1.20;;
70138;SDS011;57507;43.056;0.150;2022-07-10T02:04:58;1.50;;;1.20;;
70138;SDS011;57507;43.056;0.150;2022-07-10T02:07:25;1.98;;;1.10;;
70138;SDS011;57507;43.056;0.150;2022-07-10T02:09:51;2.08;;;1.00;;
70138;SDS011;57507;43.056;0.150;2022-07-10T02:12:18;1.60;;;1.27;;
70138;SDS011;57507;43.056;0.150;2022-07-10T02:14:45;1.52;;;1.05;;
70138;SDS011;57507;43.056;0.150;2022-07-10T02:17:12;1.25;;;0.90;;
70138;SDS011;57507;43.056;0.150;2022-07-10T02:19:41;2.00;;;0.90;;
70138;SDS011;57507;43.056;0.150;2022-07-10T02:22:08;1.67;;;1.10;;
70138;SDS011;57507;43.056;0.150;2022-07-10T02:24:35;2.15;;;1.20;;
70138;SDS011;57507;43.056;0.150;2022-07-10T02:27:01;1.60;;;1.05;;
70138;SDS011;57507;43.056;0.150;2022-07-10T02:29:28;1.70;;;1.00;;
70138;SDS011;57507;43.056;0.150;2022-07-10T02:31:55;2.80;;;1.27;;
70138;SDS011;57507;43.056;0.150;2022-07-10T02:34:21;2.75;;;1.20;;
70138;SDS011;57507;43.056;0.150;2022-07-10T02:36:48;4.22;;;1.10;;
70138;SDS011;57507;43.056;0.150;2022-07-10T02:39:15;1.98;;;1.00;;
70138;SDS011;57507;43.056;0.150;2022-07-10T02:41:42;1.10;;;1.00;;
70138;SDS011;57507;43.056;0.150;2022-07-10T02:44:09;1.38;;;1.10;;
70138;SDS011;57507;43.056;0.150;2022-07-10T02:46:36;1.55;;;1.10;;
70138;SDS011;57507;43.056;0.150;2022-07-10T02:49:03;2.28;;;1.02;;
70138;SDS011;57507;43.056;0.150;2022-07-10T02:51:30;1.77;;;0.98;;
70138;SDS011;57507;43.056;0.150;2022-07-10T02:53:57;1.88;;;1.00;;
70138;SDS011;57507;43.056;0.150;2022-07-10T02:56:23;2.17;;;1.00;;
70138;SDS011;57507;43.056;0.150;2022-07-10T02:58:50;1.60;;;1.17;;
70138;SDS011;57507;43.056;0.150;2022-07-10T03:01:17;1.20;;;0.85;;
70138;SDS011;57507;43.056;0.150;2022-07-10T03:03:44;1.63;;;1.33;;
70138;SDS011;57507;43.056;0.150;2022-07-10T03:06:10;3.40;;;1.13;;
70138;SDS011;57507;43.056;0.150;2022-07-10T03:08:36;5.20;;;1.20;;
70138;SDS011;57507;43.056;0.150;2022-07-10T03:11:03;1.88;;;1.10;;
70138;SDS011;57507;43.056;0.150;2022-07-10T03:13:30;3.05;;;1.20;;
70138;SDS011;57507;43.056;0.150;2022-07-10T03:15:56;1.90;;;1.00;;
70138;SDS011;57507;43.056;0.150;2022-07-10T03:18:23;1.80;;;0.90;;
70138;SDS011;57507;43.056;0.150;2022-07-10T03:20:50;1.70;;;1.10;;
70138;SDS011;57507;43.056;0.150;2022-07-10T03:23:17;2.00;;;1.15;;
70138;SDS011;57507;43.056;0.150;2022-07-10T03:25:43;2.72;;;1.20;;
70138;SDS011;57507;43.056;0.150;2022-07-10T03:28:10;1.20;;;1.10;;
70138;SDS011;57507;43.056;0.150;2022-07-10T03:30:36;1.10;;;0.90;;
70138;SDS011;57507;43.056;0.150;2022-07-10T03:33:03;2.00;;;1.00;;
70138;SDS011;57507;43.056;0.150;2022-07-10T03:35:30;2.03;;;1.10;;
70138;SDS011;57507;43.056;0.150;2022-07-10T03:37:57;0.82;;;0.68;;
70138;SDS011;57507;43.056;0.150;2022-07-10T03:40:23;1.85;;;0.98;;
70138;SDS011;57507;43.056;0.150;2022-07-10T03:42:51;1.10;;;1.00;;
70138;SDS011;57507;43.056;0.150;2022-07-10T03:45:18;1.80;;;1.05;;
70138;SDS011;57507;43.056;0.150;2022-07-10T03:47:44;1.90;;;1.20;;
70138;SDS011;57507;43.056;0.150;2022-07-10T03:50:11;2.30;;;1.10;;
70138;SDS011;57507;43.056;0.150;2022-07-10T03:52:37;1.58;;;0.90;;
70138;SDS011;57507;43.056;0.150;2022-07-10T03:55:04;1.92;;;1.20;;
70138;SDS011;57507;43.056;0.150;2022-07-10T03:57:31;1.95;;;0.80;;
70138;SDS011;57507;43.056;0.150;2022-07-10T04:00:16;2.28;;;1.00;;
70138;SDS011;57507;43.056;0.150;2022-07-10T04:02:43;1.02;;;0.90;;
70138;SDS011;57507;43.056;0.150;2022-07-10T04:05:10;0.80;;;0.80;;
70138;SDS011;57507;43.056;0.150;2022-07-10T04:07:37;1.67;;;1.02;;
70138;SDS011;57507;43.056;0.150;2022-07-10T04:10:04;1.60;;;1.02;;
70138;SDS011;57507;43.056;0.150;2022-07-10T04:12:30;0.98;;;0.85;;
70138;SDS011;57507;43.056;0.150;2022-07-10T04:14:57;2.47;;;1.00;;
70138;SDS011;57507;43.056;0.150;2022-07-10T04:17:24;1.20;;;1.10;;
70138;SDS011;57507;43.056;0.150;2022-07-10T04:19:50;3.90;;;1.05;;
70138;SDS011;57507;43.056;0.150;2022-07-10T04:22:17;1.92;;;1.17;;
70138;SDS011;57507;43.056;0.150;2022-07-10T04:24:44;1.00;;;0.90;;
70138;SDS011;57507;43.056;0.150;2022-07-10T04:27:11;1.52;;;0.93;;
70138;SDS011;57507;43.056;0.150;2022-07-10T04:29:37;1.38;;;0.90;;
70138;SDS011;57507;43.056;0.150;2022-07-10T04:32:04;1.45;;;0.88;;
70138;SDS011;57507;43.056;0.150;2022-07-10T04:34:31;0.60;;;0.60;;
70138;SDS011;57507;43.056;0.150;2022-07-10T04:36:57;0.90;;;0.90;;
70138;SDS011;57507;43.056;0.150;2022-07-10T04:39:25;1.05;;;0.82;;
70138;SDS011;57507;43.056;0.150;2022-07-10T04:41:52;0.95;;;0.85;;
70138;SDS011;57507;43.056;0.150;2022-07-10T04:44:18;1.63;;;0.80;;
70138;SDS011;57507;43.056;0.150;2022-07-10T04:46:46;0.57;;;0.52;;
70138;SDS011;57507;43.056;0.150;2022-07-10T04:49:13;1.10;;;0.90;;
70138;SDS011;57507;43.056;0.150;2022-07-10T04:51:40;1.13;;;0.80;;
70138;SDS011;57507;43.056;0.150;2022-07-10T04:54:06;1.27;;;0.90;;
70138;SDS011;57507;43.056;0.150;2022-07-10T04:56:33;1.92;;;0.75;;
70138;SDS011;57507;43.056;0.150;2022-07-10T04:58:59;1.15;;;0.70;;
70138;SDS011;57507;43.056;0.150;2022-07-10T05:01:27;4.72;;;0.90;;
70138;SDS011;57507;43.056;0.150;2022-07-10T05:03:54;2.28;;;0.80;;
70138;SDS011;57507;43.056;0.150;2022-07-10T05:06:21;0.85;;;0.70;;
70138;SDS011;57507;43.056;0.150;2022-07-10T05:08:47;1.17;;;0.80;;
70138;SDS011;57507;43.056;0.150;2022-07-10T05:11:14;0.57;;;0.50;;
70138;SDS011;57507;43.056;0.150;2022-07-10T05:13:41;1.77;;;0.88;;
70138;SDS011;57507;43.056;0.150;2022-07-10T05:16:16;1.10;;;0.60;;
70138;SDS011;57507;43.056;0.150;2022-07-10T05:18:42;0.90;;;0.80;;
70138;SDS011;57507;43.056;0.150;2022-07-10T05:21:09;1.40;;;0.75;;
70138;SDS011;57507;43.056;0.150;2022-07-10T05:23:37;0.55;;;0.50;;
70138;SDS011;57507;43.056;0.150;2022-07-10T05:26:03;1.20;;;0.90;;
70138;SDS011;57507;43.056;0.150;2022-07-10T05:28:30;1.00;;;0.50;;
70138;SDS011;57507;43.056;0.150;2022-07-10T05:30:56;1.50;;;0.75;;
70138;SDS011;57507;43.056;0.150;2022-07-10T05:33:23;1.55;;;0.50;;
70138;SDS011;57507;43.056;0.150;2022-07-10T05:35:51;1.48;;;0.68;;
70138;SDS011;57507;43.056;0.150;2022-07-10T05:38:18;0.57;;;0.57;;
70138;SDS011;57507;43.056;0.150;2022-07-10T05:40:45;1.05;;;0.70;;
70138;SDS011;57507;43.056;0.150;2022-07-10T05:43:11;2.92;;;0.60;;
70138;SDS011;57507;43.056;0.150;2022-07-10T05:45:38;1.10;;;0.90;;
70138;SDS011;57507;43.056;0.150;2022-07-10T05:48:05;2.67;;;0.73;;
70138;SDS011;57507;43.056;0.150;2022-07-10T05:50:32;1.65;;;0.77;;
70138;SDS011;57507;43.056;0.150;2022-07-10T05:52:59;3.67;;;0.63;;
70138;SDS011;57507;43.056;0.150;2022-07-10T05:55:25;1.20;;;0.70;;
70138;SDS011;57507;43.056;0.150;2022-07-10T05:57:52;0.90;;;0.60;;
70138;SDS011;57507;43.056;0.150;2022-07-10T06:00:19;0.63;;;0.50;;
70138;SDS011;57507;43.056;0.150;2022-07-10T06:02:46;0.75;;;0.70;;
70138;SDS011;57507;43.056;0.150;2022-07-10T06:05:13;0.65;;;0.60;;
70138;SDS011;57507;43.056;0.150;2022-07-10T06:07:40;1.63;;;0.63;;
70138;SDS011;57507;43.056;0.150;2022-07-10T06:10:07;0.60;;;0.40;;
70138;SDS011;57507;43.056;0.150;2022-07-10T06:12:33;0.40;;;0.40;;
70138;SDS011;57507;43.056;0.150;2022-07-10T06:15:03;1.25;;;0.43;;
70138;SDS011;57507;43.056;0.150;2022-07-10T06:17:29;2.80;;;0.50;;
70138;SDS011;57507;43.056;0.150;2022-07-10T06:19:55;1.00;;;0.60;;
70138;SDS011;57507;43.056;0.150;2022-07-10T06:22:22;0.52;;;0.40;;
70138;SDS011;57507;43.056;0.150;2022-07-10T06:25:05;0.50;;;0.50;;
70138;SDS011;57507;43.056;0.150;2022-07-10T06:29:59;0.63;;;0.57;;
70138;SDS011;57507;43.056;0.150;2022-07-10T06:32:26;1.05;;;0.50;;
70138;SDS011;57507;43.056;0.150;2022-07-10T06:34:53;0.90;;;0.60;;
70138;SDS011;57507;43.056;0.150;2022-07-10T06:37:20;0.52;;;0.50;;
70138;SDS011;57507;43.056;0.150;2022-07-10T06:39:47;0.88;;;0.60;;
70138;SDS011;57507;43.056;0.150;2022-07-10T06:42:14;1.30;;;0.55;;
70138;SDS011;57507;43.056;0.150;2022-07-10T06:44:43;0.98;;;0.50;;
70138;SDS011;57507;43.056;0.150;2022-07-10T06:47:10;2.70;;;0.70;;
70138;SDS011;57507;43.056;0.150;2022-07-10T06:49:57;0.60;;;0.50;;
70138;SDS011;57507;43.056;0.150;2022-07-10T06:52:23;1.80;;;0.60;;
70138;SDS011;57507;43.056;0.150;2022-07-10T06:54:50;0.77;;;0.60;;
70138;SDS011;57507;43.056;0.150;2022-07-10T06:57:16;1.20;;;0.60;;
70138;SDS011;57507;43.056;0.150;2022-07-10T06:59:44;1.98;;;0.60;;
70138;SDS011;57507;43.056;0.150;2022-07-10T07:02:11;1.60;;;0.47;;
70138;SDS011;57507;43.056;0.150;2022-07-10T07:04:38;1.10;;;0.55;;
70138;SDS011;57507;43.056;0.150;2022-07-10T07:07:04;1.75;;;0.82;;
70138;SDS011;57507;43.056;0.150;2022-07-10T07:09:31;0.60;;;0.60;;
70138;SDS011;57507;43.056;0.150;2022-07-10T07:11:57;2.50;;;0.50;;
70138;SDS011;57507;43.056;0.150;2022-07-10T07:14:24;0.65;;;0.55;;
70138;SDS011;57507;43.056;0.150;2022-07-10T07:16:51;1.10;;;0.50;;
70138;SDS011;57507;43.056;0.150;2022-07-10T07:19:26;0.60;;;0.52;;
70138;SDS011;57507;43.056;0.150;2022-07-10T07:22:11;0.95;;;0.82;;
70138;SDS011;57507;43.056;0.150;2022-07-10T07:24:56;1.33;;;0.40;;
70138;SDS011;57507;43.056;0.150;2022-07-10T07:27:22;2.50;;;0.77;;
70138;SDS011;57507;43.056;0.150;2022-07-10T07:29:49;1.13;;;0.60;;
70138;SDS011;57507;43.056;0.150;2022-07-10T07:32:16;1.00;;;0.57;;
70138;SDS011;57507;43.056;0.150;2022-07-10T07:34:42;1.23;;;0.52;;
70138;SDS011;57507;43.056;0.150;2022-07-10T07:37:09;0.60;;;0.52;;
70138;SDS011;57507;43.056;0.150;2022-07-10T07:39:36;0.47;;;0.45;;
70138;SDS011;57507;43.056;0.150;2022-07-10T07:42:03;0.55;;;0.55;;
70138;SDS011;57507;43.056;0.150;2022-07-10T07:44:30;0.85;;;0.63;;
70138;SDS011;57507;43.056;0.150;2022-07-10T07:46:58;2.00;;;0.80;;
70138;SDS011;57507;43.056;0.150;2022-07-10T07:49:24;1.08;;;0.77;;
70138;SDS011;57507;43.056;0.150;2022-07-10T07:51:51;1.00;;;0.50;;
70138;SDS011;57507;43.056;0.150;2022-07-10T07:54:17;1.20;;;0.60;;
70138;SDS011;57507;43.056;0.150;2022-07-10T07:56:45;1.08;;;0.60;;
70138;SDS011;57507;43.056;0.150;2022-07-10T07:59:11;1.42;;;0.60;;
70138;SDS011;57507;43.056;0.150;2022-07-10T08:01:39;0.63;;;0.63;;
70138;SDS011;57507;43.056;0.150;2022-07-10T08:04:06;0.70;;;0.70;;
70138;SDS011;57507;43.056;0.150;2022-07-10T08:06:34;1.58;;;0.75;;
70138;SDS011;57507;43.056;0.150;2022-07-10T08:09:01;1.20;;;1.02;;
70138;SDS011;57507;43.056;0.150;2022-07-10T08:11:28;0.95;;;0.82;;
70138;SDS011;57507;43.056;0.150;2022-07-10T08:13:54;1.25;;;0.90;;
70138;SDS011;57507;43.056;0.150;2022-07-10T08:16:21;3.30;;;1.00;;
70138;SDS011;57507;43.056;0.150;2022-07-10T08:18:47;1.08;;;0.90;;
70138;SDS011;57507;43.056;0.150;2022-07-10T08:21:15;2.03;;;0.90;;
70138;SDS011;57507;43.056;0.150;2022-07-10T08:23:42;1.17;;;0.90;;
70138;SDS011;57507;43.056;0.150;2022-07-10T08:26:09;3.20;;;0.90;;
70138;SDS011;57507;43.056;0.150;2022-07-10T08:28:36;3.00;;;1.00;;
70138;SDS011;57507;43.056;0.150;2022-07-10T08:31:06;1.83;;;0.90;;
70138;SDS011;57507;43.056;0.150;2022-07-10T08:33:33;1.25;;;0.95;;
70138;SDS011;57507;43.056;0.150;2022-07-10T08:36:00;1.45;;;0.90;;
70138;SDS011;57507;43.056;0.150;2022-07-10T08:38:27;2.42;;;0.98;;
70138;SDS011;57507;43.056;0.150;2022-07-10T08:40:53;1.48;;;1.00;;
70138;SDS011;57507;43.056;0.150;2022-07-10T08:43:23;1.85;;;1.00;;
70138;SDS011;57507;43.056;0.150;2022-07-10T08:45:51;2.42;;;0.90;;
70138;SDS011;57507;43.056;0.150;2022-07-10T08:48:21;2.67;;;0.95;;
70138;SDS011;57507;43.056;0.150;2022-07-10T08:50:51;1.30;;;0.88;;
70138;SDS011;57507;43.056;0.150;2022-07-10T08:53:23;1.88;;;0.90;;
70138;SDS011;57507;43.056;0.150;2022-07-10T08:55:50;2.10;;;1.00;;
70138;SDS011;57507;43.056;0.150;2022-07-10T08:58:16;1.13;;;1.02;;
70138;SDS011;57507;43.056;0.150;2022-07-10T09:00:44;4.78;;;0.93;;
70138;SDS011;57507;43.056;0.150;2022-07-10T09:03:12;2.28;;;0.93;;
70138;SDS011;57507;43.056;0.150;2022-07-10T09:05:38;2.10;;;0.60;;
70138;SDS011;57507;43.056;0.150;2022-07-10T09:08:20;1.00;;;0.77;;
70138;SDS011;57507;43.056;0.150;2022-07-10T09:10:47;0.82;;;0.75;;
70138;SDS011;57507;43.056;0.150;2022-07-10T09:13:14;1.27;;;0.90;;
70138;SDS011;57507;43.056;0.150;2022-07-10T09:15:47;2.90;;;0.85;;
70138;SDS011;57507;43.056;0.150;2022-07-10T09:18:17;1.63;;;0.93;;
70138;SDS011;57507;43.056;0.150;2022-07-10T09:20:45;1.13;;;0.80;;
70138;SDS011;57507;43.056;0.150;2022-07-10T09:25:45;2.33;;;0.80;;
70138;SDS011;57507;43.056;0.150;2022-07-10T09:28:13;0.80;;;0.70;;
70138;SDS011;57507;43.056;0.150;2022-07-10T09:30:40;2.45;;;0.93;;
70138;SDS011;57507;43.056;0.150;2022-07-10T09:35:54;1.52;;;0.82;;
70138;SDS011;57507;43.056;0.150;2022-07-10T09:41:12;5.20;;;0.85;;
70138;SDS011;57507;43.056;0.150;2022-07-10T09:43:46;1.05;;;0.90;;
70138;SDS011;57507;43.056;0.150;2022-07-10T09:46:13;0.77;;;0.77;;
70138;SDS011;57507;43.056;0.150;2022-07-10T09:48:40;1.02;;;0.75;;
70138;SDS011;57507;43.056;0.150;2022-07-10T09:51:08;0.98;;;0.77;;
70138;SDS011;57507;43.056;0.150;2022-07-10T09:53:41;1.23;;;0.90;;
70138;SDS011;57507;43.056;0.150;2022-07-10T09:56:09;0.90;;;0.80;;
70138;SDS011;57507;43.056;0.150;2022-07-10T09:58:36;1.33;;;0.90;;
70138;SDS011;57507;43.056;0.150;2022-07-10T10:01:04;2.28;;;0.80;;
70138;SDS011;57507;43.056;0.150;2022-07-10T10:03:37;1.65;;;0.90;;
70138;SDS011;57507;43.056;0.150;2022-07-10T10:06:09;0.93;;;0.70;;
70138;SDS011;57507;43.056;0.150;2022-07-10T10:08:43;0.80;;;0.73;;
70138;SDS011;57507;43.056;0.150;2022-07-10T10:11:13;3.97;;;0.88;;
70138;SDS011;57507;43.056;0.150;2022-07-10T10:13:41;1.20;;;0.90;;
70138;SDS011;57507;43.056;0.150;2022-07-10T10:16:08;3.22;;;0.80;;
70138;SDS011;57507;43.056;0.150;2022-07-10T10:18:34;2.15;;;0.90;;
70138;SDS011;57507;43.056;0.150;2022-07-10T10:21:22;0.68;;;0.68;;
70138;SDS011;57507;43.056;0.150;2022-07-10T10:23:48;0.68;;;0.63;;
70138;SDS011;57507;43.056;0.150;2022-07-10T10:26:15;1.42;;;1.00;;
70138;SDS011;57507;43.056;0.150;2022-07-10T10:28:42;2.17;;;0.98;;
70138;SDS011;57507;43.056;0.150;2022-07-10T10:31:09;1.35;;;0.95;;
70138;SDS011;57507;43.056;0.150;2022-07-10T10:36:05;1.00;;;0.90;;
70138;SDS011;57507;43.056;0.150;2022-07-10T10:41:22;2.00;;;0.90;;
70138;SDS011;57507;43.056;0.150;2022-07-10T10:49:22;2.28;;;0.85;;
70138;SDS011;57507;43.056;0.150;2022-07-10T10:54:25;2.90;;;1.02;;
70138;SDS011;57507;43.056;0.150;2022-07-10T11:04:51;2.03;;;1.10;;
70138;SDS011;57507;43.056;0.150;2022-07-10T11:12:58;1.10;;;1.00;;
70138;SDS011;57507;43.056;0.150;2022-07-10T11:15:26;2.67;;;1.08;;
70138;SDS011;57507;43.056;0.150;2022-07-10T11:17:56;2.25;;;1.25;;
70138;SDS011;57507;43.056;0.150;2022-07-10T11:20:23;1.23;;;1.08;;
70138;SDS011;57507;43.056;0.150;2022-07-10T11:22:58;1.42;;;1.13;;
70138;SDS011;57507;43.056;0.150;2022-07-10T11:28:04;1.50;;;1.10;;
70138;SDS011;57507;43.056;0.150;2022-07-10T11:33:30;2.03;;;1.00;;
70138;SDS011;57507;43.056;0.150;2022-07-10T11:36:09;1.30;;;1.20;;
70138;SDS011;57507;43.056;0.150;2022-07-10T11:38:36;1.33;;;1.20;;
70138;SDS011;57507;43.056;0.150;2022-07-10T11:41:04;1.70;;;1.20;;
70138;SDS011;57507;43.056;0.150;2022-07-10T11:43:45;1.80;;;0.98;;
70138;SDS011;57507;43.056;0.150;2022-07-10T11:46:11;2.17;;;1.20;;
70138;SDS011;57507;43.056;0.150;2022-07-10T11:48:40;2.55;;;1.20;;
70138;SDS011;57507;43.056;0.150;2022-07-10T11:51:17;2.47;;;1.23;;
70138;SDS011;57507;43.056;0.150;2022-07-10T11:56:27;1.55;;;1.20;;
70138;SDS011;57507;43.056;0.150;2022-07-10T11:58:58;1.23;;;1.00;;
70138;SDS011;57507;43.056;0.150;2022-07-10T12:01:25;2.67;;;1.42;;
70138;SDS011;57507;43.056;0.150;2022-07-10T12:03:54;1.98;;;1.40;;
70138;SDS011;57507;43.056;0.150;2022-07-10T12:06:24;2.78;;;0.98;;
70138;SDS011;57507;43.056;0.150;2022-07-10T12:08:51;2.75;;;1.30;;
70138;SDS011;57507;43.056;0.150;2022-07-10T12:11:19;1.90;;;1.25;;
70138;SDS011;57507;43.056;0.150;2022-07-10T12:13:47;1.98;;;1.40;;
70138;SDS011;57507;43.056;0.150;2022-07-10T12:16:14;1.67;;;1.20;;
70138;SDS011;57507;43.056;0.150;2022-07-10T12:18:42;1.35;;;1.05;;
70138;SDS011;57507;43.056;0.150;2022-07-10T12:21:09;1.65;;;1.15;;
70138;SDS011;57507;43.056;0.150;2022-07-10T12:23:36;2.17;;;1.10;;
70138;SDS011;57507;43.056;0.150;2022-07-10T12:26:09;1.25;;;1.13;;
70138;SDS011;57507;43.056;0.150;2022-07-10T12:28:50;2.28;;;1.20;;
70138;SDS011;57507;43.056;0.150;2022-07-10T12:31:20;1.35;;;1.25;;
70138;SDS011;57507;43.056;0.150;2022-07-10T12:33:49;2.65;;;1.50;;
70138;SDS011;57507;43.056;0.150;2022-07-10T12:36:17;1.92;;;1.27;;
70138;SDS011;57507;43.056;0.150;2022-07-10T12:38:52;1.85;;;1.30;;
70138;SDS011;57507;43.056;0.150;2022-07-10T12:41:19;2.22;;;1.48;;
70138;SDS011;57507;43.056;0.150;2022-07-10T12:43:49;1.88;;;1.27;;
70138;SDS011;57507;43.056;0.150;2022-07-10T12:46:17;1.80;;;1.10;;
70138;SDS011;57507;43.056;0.150;2022-07-10T12:49:06;1.30;;;1.20;;
70138;SDS011;57507;43.056;0.150;2022-07-10T12:51:33;1.65;;;1.25;;
70138;SDS011;57507;43.056;0.150;2022-07-10T12:54:00;2.58;;;1.20;;
70138;SDS011;57507;43.056;0.150;2022-07-10T12:56:36;1.52;;;1.40;;
70138;SDS011;57507;43.056;0.150;2022-07-10T12:59:04;1.13;;;1.00;;
70138;SDS011;57507;43.056;0.150;2022-07-10T13:01:41;5.05;;;1.50;;
70138;SDS011;57507;43.056;0.150;2022-07-10T13:04:08;2.15;;;1.20;;
70138;SDS011;57507;43.056;0.150;2022-07-10T13:06:34;2.25;;;1.20;;
70138;SDS011;57507;43.056;0.150;2022-07-10T13:09:02;1.40;;;1.30;;
70138;SDS011;57507;43.056;0.150;2022-07-10T13:11:28;1.80;;;1.30;;
70138;SDS011;57507;43.056;0.150;2022-07-10T13:13:55;2.33;;;1.10;;
70138;SDS011;57507;43.056;0.150;2022-07-10T13:16:22;2.33;;;1.20;;
70138;SDS011;57507;43.056;0.150;2022-07-10T13:18:48;4.60;;;1.35;;
70138;SDS011;57507;43.056;0.150;2022-07-10T13:21:15;1.20;;;1.10;;
70138;SDS011;57507;43.056;0.150;2022-07-10T13:23:41;1.63;;;1.33;;
70138;SDS011;57507;43.056;0.150;2022-07-10T13:26:08;1.27;;;1.17;;
70138;SDS011;57507;43.056;0.150;2022-07-10T13:28:35;2.97;;;1.25;;
70138;SDS011;57507;43.056;0.150;2022-07-10T13:31:01;1.38;;;1.25;;
70138;SDS011;57507;43.056;0.150;2022-07-10T13:33:28;1.10;;;1.05;;
70138;SDS011;57507;43.056;0.150;2022-07-10T13:35:54;1.20;;;1.10;;
70138;SDS011;57507;43.056;0.150;2022-07-10T13:38:21;1.15;;;1.05;;
70138;SDS011;57507;43.056;0.150;2022-07-10T13:40:50;1.33;;;1.10;;
70138;SDS011;57507;43.056;0.150;2022-07-10T13:43:17;1.50;;;1.02;;
70138;SDS011;57507;43.056;0.150;2022-07-10T13:45:46;3.95;;;1.08;;
70138;SDS011;57507;43.056;0.150;2022-07-10T13:48:14;1.23;;;1.10;;
70138;SDS011;57507;43.056;0.150;2022-07-10T13:50:44;1.48;;;1.08;;
70138;SDS011;57507;43.056;0.150;2022-07-10T13:53:15;1.33;;;1.23;;
70138;SDS011;57507;43.056;0.150;2022-07-10T13:55:41;1.88;;;1.10;;
70138;SDS011;57507;43.056;0.150;2022-07-10T13:58:09;1.42;;;1.17;;
70138;SDS011;57507;43.056;0.150;2022-07-10T14:00:36;3.30;;;1.38;;
70138;SDS011;57507;43.056;0.150;2022-07-10T14:03:03;4.70;;;1.15;;
70138;SDS011;57507;43.056;0.150;2022-07-10T14:05:29;1.13;;;1.02;;
70138;SDS011;57507;43.056;0.150;2022-07-10T14:07:57;0.73;;;0.73;;
70138;SDS011;57507;43.056;0.150;2022-07-10T14:10:24;1.63;;;1.10;;
70138;SDS011;57507;43.056;0.150;2022-07-10T14:12:54;3.00;;;1.20;;
70138;SDS011;57507;43.056;0.150;2022-07-10T14:15:21;1.42;;;1.10;;
70138;SDS011;57507;43.056;0.150;2022-07-10T14:17:47;1.17;;;1.08;;
70138;SDS011;57507;43.056;0.150;2022-07-10T14:20:15;1.13;;;0.90;;
70138;SDS011;57507;43.056;0.150;2022-07-10T14:22:42;2.28;;;1.27;;
70138;SDS011;57507;43.056;0.150;2022-07-10T14:25:12;1.17;;;1.00;;
70138;SDS011;57507;43.056;0.150;2022-07-10T14:27:39;3.17;;;1.30;;
70138;SDS011;57507;43.056;0.150;2022-07-10T14:30:06;1.20;;;1.10;;
70138;SDS011;57507;43.056;0.150;2022-07-10T14:32:33;1.20;;;1.00;;
70138;SDS011;57507;43.056;0.150;2022-07-10T14:34:59;2.55;;;1.30;;
70138;SDS011;57507;43.056;0.150;2022-07-10T14:37:26;1.48;;;1.10;;
70138;SDS011;57507;43.056;0.150;2022-07-10T14:39:54;1.60;;;1.08;;
70138;SDS011;57507;43.056;0.150;2022-07-10T14:42:21;1.20;;;0.98;;
70138;SDS011;57507;43.056;0.150;2022-07-10T14:44:48;1.67;;;1.33;;
70138;SDS011;57507;43.056;0.150;2022-07-10T14:47:14;1.45;;;1.05;;
70138;SDS011;57507;43.056;0.150;2022-07-10T14:49:42;1.38;;;0.90;;
70138;SDS011;57507;43.056;0.150;2022-07-10T14:52:09;4.72;;;1.20;;
70138;SDS011;57507;43.056;0.150;2022-07-10T14:54:35;1.05;;;0.98;;
70138;SDS011;57507;43.056;0.150;2022-07-10T14:57:02;1.33;;;1.17;;
70138;SDS011;57507;43.056;0.150;2022-07-10T14:59:28;1.17;;;1.08;;
70138;SDS011;57507;43.056;0.150;2022-07-10T15:01:55;1.30;;;1.20;;
70138;SDS011;57507;43.056;0.150;2022-07-10T15:04:23;1.25;;;1.00;;
70138;SDS011;57507;43.056;0.150;2022-07-10T15:06:51;1.60;;;1.00;;
70138;SDS011;57507;43.056;0.150;2022-07-10T15:09:17;3.35;;;1.10;;
70138;SDS011;57507;43.056;0.150;2022-07-10T15:11:44;1.38;;;1.27;;
70138;SDS011;57507;43.056;0.150;2022-07-10T15:14:12;2.42;;;1.40;;
70138;SDS011;57507;43.056;0.150;2022-07-10T15:16:39;2.22;;;1.30;;
70138;SDS011;57507;43.056;0.150;2022-07-10T15:19:05;1.38;;;1.27;;
70138;SDS011;57507;43.056;0.150;2022-07-10T15:21:35;1.42;;;1.20;;
70138;SDS011;57507;43.056;0.150;2022-07-10T15:24:02;2.25;;;1.02;;
70138;SDS011;57507;43.056;0.150;2022-07-10T15:26:29;1.70;;;1.30;;
70138;SDS011;57507;43.056;0.150;2022-07-10T15:28:56;1.52;;;1.20;;
70138;SDS011;57507;43.056;0.150;2022-07-10T15:31:24;1.25;;;1.15;;
70138;SDS011;57507;43.056;0.150;2022-07-10T15:33:51;2.70;;;1.42;;
70138;SDS011;57507;43.056;0.150;2022-07-10T15:36:18;1.40;;;1.30;;